createdAt,value
2023-05-14T00:02:25.571Z,100.00
2023-05-14T00:04:55.802Z,100.00
2023-05-14T00:07:30.094Z,100.00
2023-05-14T00:10:01.179Z,100.00
2023-05-14T00:12:31.425Z,100.00
2023-05-14T00:15:01.620Z,100.00
2023-05-14T00:17:31.982Z,100.00
2023-05-14T00:20:02.260Z,100.00
2023-05-14T00:22:32.988Z,100.00
2023-05-14T00:25:03.725Z,100.00
2023-05-14T00:27:34.255Z,100.00
2023-05-14T00:30:06.420Z,100.00
2023-05-14T00:32:36.597Z,100.00
2023-05-14T00:35:10.216Z,100.00
2023-05-14T00:37:40.471Z,100.00
2023-05-14T00:40:13.644Z,100.00
2023-05-14T00:42:43.611Z,100.00
2023-05-14T00:45:13.684Z,100.00
2023-05-14T00:47:44.987Z,100.00
2023-05-14T00:50:16.600Z,100.00
2023-05-14T00:52:47.717Z,100.00
2023-05-14T00:55:18.863Z,100.00
2023-05-14T00:57:51.453Z,100.00
2023-05-14T01:00:22.450Z,100.00
2023-05-14T01:02:52.743Z,100.00
2023-05-14T01:05:27.419Z,100.00
2023-05-14T01:08:08.501Z,100.00
2023-05-14T01:10:48.203Z,100.00
2023-05-14T01:13:26.067Z,100.00
2023-05-14T01:15:58.584Z,100.00
2023-05-14T01:18:31.681Z,100.00
2023-05-14T01:21:03.664Z,100.00
2023-05-14T01:23:32.571Z,100.00
2023-05-14T01:26:03.088Z,100.00
2023-05-14T01:28:37.224Z,100.00
2023-05-14T01:31:12.361Z,100.00
2023-05-14T01:33:44.633Z,100.00
2023-05-14T01:36:13.582Z,100.00
2023-05-14T01:38:46.660Z,100.00
2023-05-14T01:41:18.682Z,100.00
2023-05-14T01:43:49.824Z,100.00
2023-05-14T01:46:20.476Z,100.00
2023-05-14T01:48:51.162Z,100.00
2023-05-14T01:51:22.488Z,100.00
2023-05-14T01:53:52.420Z,100.00
2023-05-14T01:56:25.178Z,100.00
2023-05-14T01:58:55.291Z,100.00
2023-05-14T02:01:26.355Z,100.00
2023-05-14T02:03:57.002Z,100.00
2023-05-14T02:06:27.284Z,100.00
2023-05-14T02:08:59.463Z,100.00
2023-05-14T02:11:30.188Z,100.00
2023-05-14T02:14:00.533Z,100.00
2023-05-14T02:16:31.467Z,100.00
2023-05-14T02:19:03.228Z,100.00
2023-05-14T02:21:33.931Z,100.00
2023-05-14T02:24:04.875Z,100.00
2023-05-14T02:26:35.203Z,100.00
2023-05-14T02:29:05.939Z,100.00
2023-05-14T02:31:35.878Z,100.00
2023-05-14T02:34:07.197Z,100.00
2023-05-14T02:36:37.097Z,100.00
2023-05-14T02:39:08.043Z,100.00
2023-05-14T02:41:37.955Z,100.00
2023-05-14T02:44:09.711Z,100.00
2023-05-14T02:46:40.516Z,100.00
2023-05-14T02:49:11.787Z,100.00
2023-05-14T02:51:43.377Z,100.00
2023-05-14T02:54:16.050Z,100.00
2023-05-14T02:56:46.737Z,100.00
2023-05-14T02:59:17.377Z,100.00
2023-05-14T03:01:47.659Z,100.00
2023-05-14T03:04:19.065Z,100.00
2023-05-14T03:06:50.349Z,100.00
2023-05-14T03:09:21.153Z,100.00
2023-05-14T03:11:51.831Z,100.00
2023-05-14T03:14:22.389Z,100.00
2023-05-14T03:16:53.712Z,100.00
2023-05-14T03:19:23.651Z,100.00
2023-05-14T03:21:53.766Z,100.00
2023-05-14T03:24:23.884Z,100.00
2023-05-14T03:26:54.424Z,100.00
2023-05-14T03:29:25.146Z,100.00
2023-05-14T03:31:55.881Z,100.00
2023-05-14T03:34:25.801Z,100.00
2023-05-14T03:36:55.704Z,100.00
2023-05-14T03:39:26.644Z,100.00
2023-05-14T03:41:58.247Z,100.00
2023-05-14T03:44:28.731Z,100.00
2023-05-14T03:46:59.713Z,100.00
2023-05-14T03:49:30.390Z,100.00
2023-05-14T03:52:00.925Z,100.00
2023-05-14T03:54:31.867Z,100.00
2023-05-14T03:57:01.754Z,100.00
2023-05-14T03:59:32.506Z,100.00
2023-05-14T04:02:02.832Z,100.00
2023-05-14T04:04:32.950Z,100.00
2023-05-14T04:07:08.305Z,100.00
2023-05-14T04:09:39.533Z,100.00
2023-05-14T04:12:11.195Z,100.00
2023-05-14T04:14:41.141Z,100.00
2023-05-14T04:17:12.548Z,100.00
2023-05-14T04:19:43.068Z,100.00
2023-05-14T04:22:12.798Z,100.00
2023-05-14T04:24:42.893Z,100.00
2023-05-14T04:27:14.653Z,100.00
2023-05-14T04:29:44.967Z,100.00
2023-05-14T04:32:17.029Z,100.00
2023-05-14T04:34:47.468Z,100.00
2023-05-14T04:37:18.188Z,100.00
2023-05-14T04:39:49.958Z,100.00
2023-05-14T04:42:21.293Z,100.00
2023-05-14T04:44:52.023Z,100.00
2023-05-14T04:47:22.799Z,100.00
2023-05-14T04:49:54.110Z,100.00
2023-05-14T04:52:26.211Z,100.00
2023-05-14T04:54:56.596Z,100.00
2023-05-14T04:57:27.439Z,100.00
2023-05-14T04:59:57.854Z,100.00
2023-05-14T05:02:27.979Z,100.00
2023-05-14T05:04:58.091Z,100.00
2023-05-14T05:07:29.034Z,100.00
2023-05-14T05:10:00.246Z,100.00
2023-05-14T05:12:30.916Z,100.00
2023-05-14T05:15:01.026Z,100.00
2023-05-14T05:17:31.738Z,100.00
2023-05-14T05:20:05.161Z,100.00
2023-05-14T05:22:35.885Z,100.00
2023-05-14T05:25:08.821Z,100.00
2023-05-14T05:27:38.784Z,100.00
2023-05-14T05:30:12.144Z,100.00
2023-05-14T05:32:41.737Z,100.00
2023-05-14T05:35:12.608Z,100.00
2023-05-14T05:37:42.685Z,100.00
2023-05-14T05:40:14.494Z,100.00
2023-05-14T05:42:44.613Z,100.00
2023-05-14T05:45:14.932Z,100.00
2023-05-14T05:47:45.306Z,100.00
2023-05-14T05:50:15.171Z,100.00
2023-05-14T05:52:46.111Z,100.00
2023-05-14T05:55:15.965Z,100.00
2023-05-14T05:57:46.138Z,100.00
2023-05-14T06:00:19.936Z,100.00
2023-05-14T06:02:50.315Z,100.00
2023-05-14T06:05:20.673Z,100.00
2023-05-14T06:07:52.840Z,100.00
2023-05-14T06:10:21.858Z,100.00
2023-05-14T06:12:52.585Z,100.00
2023-05-14T06:15:22.904Z,100.00
2023-05-14T06:17:53.240Z,100.00
2023-05-14T06:20:23.844Z,100.00
2023-05-14T06:22:54.019Z,100.00
2023-05-14T06:25:24.197Z,100.00
2023-05-14T06:27:54.721Z,100.00
2023-05-14T06:30:25.839Z,100.00
2023-05-14T06:32:57.259Z,100.00
2023-05-14T06:35:27.950Z,100.00
2023-05-14T06:37:58.270Z,100.00
2023-05-14T06:40:28.433Z,100.00
2023-05-14T06:42:58.301Z,100.00
2023-05-14T06:45:28.639Z,100.00
2023-05-14T06:47:59.023Z,100.00
2023-05-14T06:50:29.678Z,100.00
2023-05-14T06:53:01.484Z,100.00
2023-05-14T06:55:32.169Z,100.00
2023-05-14T06:58:02.492Z,100.00
2023-05-14T07:00:32.609Z,100.00
2023-05-14T07:03:02.465Z,100.00
2023-05-14T07:05:33.256Z,100.00
2023-05-14T07:08:02.895Z,100.00
2023-05-14T07:10:33.080Z,100.00
2023-05-14T07:13:04.021Z,100.00
2023-05-14T07:15:34.346Z,100.00
2023-05-14T07:18:04.899Z,100.00
2023-05-14T07:20:35.190Z,100.00
2023-05-14T07:23:05.107Z,100.00
2023-05-14T07:25:35.022Z,100.00
2023-05-14T07:28:05.751Z,100.00
2023-05-14T07:30:35.681Z,100.00
2023-05-14T07:33:05.809Z,100.00
2023-05-14T07:35:36.324Z,100.00
2023-05-14T07:38:07.050Z,100.00
2023-05-14T07:40:36.754Z,100.00
2023-05-14T07:43:06.870Z,100.00
2023-05-14T07:45:38.840Z,100.00
2023-05-14T07:48:09.315Z,100.00
2023-05-14T07:50:40.095Z,100.00
2023-05-14T07:53:10.621Z,100.00
2023-05-14T07:55:41.772Z,100.00
2023-05-14T07:58:12.098Z,100.00
2023-05-14T08:00:41.798Z,100.00
2023-05-14T08:03:12.026Z,100.00
2023-05-14T08:05:42.651Z,100.00
2023-05-14T08:08:13.178Z,100.00
2023-05-14T08:10:43.357Z,100.00
2023-05-14T08:13:13.843Z,100.00
2023-05-14T08:15:43.336Z,100.00
2023-05-14T08:18:14.412Z,99.40
2023-05-14T08:20:44.588Z,99.66
2023-05-14T08:23:14.722Z,99.28
2023-05-14T08:25:45.652Z,97.80
2023-05-14T08:28:15.765Z,96.89
2023-05-14T08:30:45.771Z,94.94
2023-05-14T08:33:15.592Z,94.42
2023-05-14T08:35:45.916Z,94.07
2023-05-14T08:38:16.444Z,93.27
2023-05-14T08:40:54.507Z,91.39
2023-05-14T08:43:28.953Z,89.47
2023-05-14T08:46:01.732Z,89.27
2023-05-14T08:48:35.518Z,89.20
2023-05-14T08:51:07.344Z,87.38
2023-05-14T08:53:39.992Z,85.33
2023-05-14T08:56:12.356Z,82.62
2023-05-14T08:58:43.400Z,81.59
2023-05-14T09:01:13.110Z,80.69
2023-05-14T09:03:44.518Z,77.53
2023-05-14T09:06:15.960Z,75.35
2023-05-14T09:08:46.253Z,71.67
2023-05-14T09:11:16.656Z,74.89
2023-05-14T09:13:47.996Z,74.32
2023-05-14T09:16:18.882Z,72.46
2023-05-14T09:18:49.287Z,71.17
2023-05-14T09:21:20.340Z,71.44
2023-05-14T09:23:57.226Z,69.47
2023-05-14T09:26:31.360Z,69.54
2023-05-14T09:29:03.044Z,68.69
2023-05-14T09:31:33.983Z,68.08
2023-05-14T09:34:04.522Z,66.99
2023-05-14T09:36:36.228Z,65.74
2023-05-14T09:39:05.168Z,65.19
2023-05-14T09:41:37.128Z,65.96
2023-05-14T09:44:07.853Z,65.64
2023-05-14T09:46:38.190Z,64.50
2023-05-14T09:49:08.294Z,65.61
2023-05-14T09:51:39.234Z,65.23
2023-05-14T09:54:10.583Z,64.32
2023-05-14T09:56:40.491Z,62.73
2023-05-14T09:59:10.405Z,62.80
2023-05-14T10:01:42.872Z,61.76
2023-05-14T10:04:14.550Z,61.82
2023-05-14T10:06:50.592Z,61.39
2023-05-14T10:09:25.910Z,60.54
2023-05-14T10:11:59.412Z,59.85
2023-05-14T10:14:36.252Z,59.95
2023-05-14T10:17:08.807Z,59.42
2023-05-14T10:19:40.636Z,59.79
2023-05-14T10:22:13.161Z,59.40
2023-05-14T10:24:43.535Z,58.62
2023-05-14T10:27:14.832Z,57.84
2023-05-14T10:29:54.424Z,56.68
2023-05-14T10:32:26.070Z,56.71
2023-05-14T10:34:56.297Z,55.71
2023-05-14T10:37:27.681Z,55.12
2023-05-14T10:40:01.598Z,54.99
2023-05-14T10:42:35.366Z,53.59
2023-05-14T10:45:11.032Z,53.46
2023-05-14T10:47:42.695Z,52.66
2023-05-14T10:50:15.064Z,52.12
2023-05-14T10:52:46.379Z,51.61
2023-05-14T10:55:17.525Z,50.43
2023-05-14T10:57:49.456Z,50.15
2023-05-14T11:00:20.177Z,50.75
2023-05-14T11:02:56.671Z,50.82
2023-05-14T11:05:27.420Z,50.55
2023-05-14T11:07:59.116Z,50.41
2023-05-14T11:10:29.719Z,50.61
2023-05-14T11:12:59.819Z,49.91
2023-05-14T11:15:31.574Z,49.90
2023-05-14T11:18:01.318Z,49.17
2023-05-14T11:20:32.435Z,49.53
2023-05-14T11:23:02.952Z,49.86
2023-05-14T11:25:33.687Z,49.81
2023-05-14T11:28:05.242Z,49.56
2023-05-14T11:30:36.181Z,49.61
2023-05-14T11:33:06.340Z,48.15
2023-05-14T11:35:39.412Z,48.58
2023-05-14T11:38:15.833Z,48.75
2023-05-14T11:40:53.853Z,48.31
2023-05-14T11:43:25.819Z,48.85
2023-05-14T11:45:57.058Z,48.22
2023-05-14T11:48:27.502Z,47.90
2023-05-14T11:50:58.304Z,47.73
2023-05-14T11:53:29.791Z,47.90
2023-05-14T11:56:03.215Z,47.33
2023-05-14T11:58:34.315Z,47.91
2023-05-14T12:01:04.177Z,47.90
2023-05-14T12:03:35.198Z,47.22
2023-05-14T12:06:10.957Z,47.54
2023-05-14T12:08:45.825Z,47.58
2023-05-14T12:11:21.905Z,47.79
2023-05-14T12:13:53.253Z,46.88
2023-05-14T12:16:21.903Z,46.09
2023-05-14T12:18:52.293Z,46.36
2023-05-14T12:21:23.397Z,46.67
2023-05-14T12:23:59.870Z,46.18
2023-05-14T12:26:34.050Z,46.61
2023-05-14T12:29:06.796Z,46.42
2023-05-14T12:31:37.435Z,46.08
2023-05-14T12:34:08.125Z,45.68
2023-05-14T12:36:38.037Z,45.67
2023-05-14T12:39:07.938Z,45.86
2023-05-14T12:41:38.478Z,45.61
2023-05-14T12:44:08.527Z,45.05
2023-05-14T12:46:38.580Z,45.14
2023-05-14T12:49:09.043Z,44.88
2023-05-14T12:51:39.980Z,45.64
2023-05-14T12:54:10.930Z,45.46
2023-05-14T12:56:41.024Z,45.30
2023-05-14T12:59:11.151Z,44.92
2023-05-14T13:01:42.371Z,44.71
2023-05-14T13:04:13.459Z,45.25
2023-05-14T13:06:44.790Z,45.68
2023-05-14T13:09:15.118Z,44.33
2023-05-14T13:11:45.844Z,44.46
2023-05-14T13:14:17.053Z,44.85
2023-05-14T13:16:48.343Z,44.88
2023-05-14T13:19:18.740Z,45.24
2023-05-14T13:21:49.388Z,45.24
2023-05-14T13:24:19.317Z,44.72
2023-05-14T13:26:49.037Z,44.28
2023-05-14T13:29:19.144Z,44.16
2023-05-14T13:31:49.251Z,44.11
2023-05-14T13:34:20.192Z,43.74
2023-05-14T13:36:50.230Z,43.59
2023-05-14T13:39:22.191Z,43.64
2023-05-14T13:41:52.789Z,43.55
2023-05-14T13:44:23.259Z,43.29
2023-05-14T13:46:53.747Z,42.85
2023-05-14T13:49:24.178Z,43.19
2023-05-14T13:51:55.116Z,43.03
2023-05-14T13:54:25.976Z,43.04
2023-05-14T13:56:56.990Z,42.82
2023-05-14T13:59:27.516Z,42.79
2023-05-14T14:01:57.734Z,42.68
2023-05-14T14:04:29.803Z,42.94
2023-05-14T14:07:00.135Z,43.30
2023-05-14T14:09:34.434Z,43.49
2023-05-14T14:12:09.086Z,43.57
2023-05-14T14:14:39.895Z,43.59
2023-05-14T14:17:10.632Z,43.60
2023-05-14T14:19:41.165Z,43.70
2023-05-14T14:22:13.625Z,43.78
2023-05-14T14:24:43.858Z,43.70
2023-05-14T14:27:14.182Z,44.48
2023-05-14T14:29:44.294Z,44.36
2023-05-14T14:32:14.001Z,44.53
2023-05-14T14:34:44.786Z,44.19
2023-05-14T14:37:15.041Z,44.48
2023-05-14T14:39:45.391Z,44.57
2023-05-14T14:42:15.298Z,43.90
2023-05-14T14:44:45.416Z,44.38
2023-05-14T14:47:15.133Z,44.77
2023-05-14T14:49:45.041Z,44.79
2023-05-14T14:52:14.949Z,44.76
2023-05-14T14:54:45.278Z,44.93
2023-05-14T14:57:15.392Z,44.91
2023-05-14T14:59:46.537Z,44.92
2023-05-14T15:02:16.680Z,44.86
2023-05-14T15:04:47.206Z,44.83
2023-05-14T15:07:18.330Z,44.56
2023-05-14T15:09:48.857Z,44.40
2023-05-14T15:12:19.385Z,44.57
2023-05-14T15:14:49.878Z,44.76
2023-05-14T15:17:19.832Z,44.89
2023-05-14T15:19:50.569Z,45.09
2023-05-14T15:22:20.485Z,45.05
2023-05-14T15:24:50.597Z,44.87
2023-05-14T15:27:20.856Z,44.78
2023-05-14T15:29:51.033Z,45.02
2023-05-14T15:32:20.946Z,45.38
2023-05-14T15:34:51.682Z,45.26
2023-05-14T15:37:21.596Z,45.64
2023-05-14T15:39:52.128Z,46.06
2023-05-14T15:42:22.449Z,45.53
2023-05-14T15:44:52.975Z,45.62
2023-05-14T15:47:23.637Z,46.07
2023-05-14T15:49:53.623Z,46.01
2023-05-14T15:52:23.945Z,45.62
2023-05-14T15:54:55.700Z,45.86
2023-05-14T15:57:26.032Z,46.38
2023-05-14T15:59:56.753Z,46.96
2023-05-14T16:02:29.984Z,46.68
2023-05-14T16:05:00.414Z,46.58
2023-05-14T16:07:30.357Z,46.63
2023-05-14T16:10:00.309Z,46.14
2023-05-14T16:12:30.431Z,47.33
2023-05-14T16:15:01.237Z,47.56
2023-05-14T16:17:32.327Z,47.56
2023-05-14T16:20:04.175Z,48.32
2023-05-14T16:22:35.812Z,48.30
2023-05-14T16:25:06.949Z,48.00
2023-05-14T16:27:37.486Z,48.70
2023-05-14T16:30:11.227Z,48.66
2023-05-14T16:32:42.008Z,48.98
2023-05-14T16:35:12.424Z,48.52
2023-05-14T16:37:42.453Z,48.90
2023-05-14T16:40:15.757Z,49.06
2023-05-14T16:42:48.442Z,49.02
2023-05-14T16:45:19.993Z,48.91
2023-05-14T16:47:50.365Z,49.42
2023-05-14T16:50:21.437Z,49.34
2023-05-14T16:52:51.949Z,49.21
2023-05-14T16:55:22.567Z,49.09
2023-05-14T16:57:53.436Z,49.24
2023-05-14T17:00:24.454Z,48.59
2023-05-14T17:02:54.732Z,48.39
2023-05-14T17:05:25.609Z,48.21
2023-05-14T17:07:56.360Z,48.00
2023-05-14T17:10:27.913Z,47.92
2023-05-14T17:12:58.847Z,47.67
2023-05-14T17:15:47.218Z,48.25
2023-05-14T17:18:17.995Z,47.67
2023-05-14T17:20:48.662Z,47.97
2023-05-14T17:23:20.000Z,47.98
2023-05-14T17:25:50.338Z,48.42
2023-05-14T17:28:21.065Z,48.80
2023-05-14T17:30:51.597Z,49.07
2023-05-14T17:33:23.076Z,49.18
2023-05-14T17:35:53.464Z,49.17
2023-05-14T17:38:24.404Z,49.21
2023-05-14T17:40:54.610Z,49.52
2023-05-14T17:43:24.641Z,49.38
2023-05-14T17:45:54.894Z,49.26
2023-05-14T17:48:25.286Z,49.46
2023-05-14T17:50:56.144Z,49.20
2023-05-14T17:53:26.394Z,49.53
2023-05-14T17:55:56.262Z,48.89
2023-05-14T17:58:26.184Z,49.39
2023-05-14T18:00:56.748Z,49.43
2023-05-14T18:03:27.245Z,49.65
2023-05-14T18:05:58.829Z,50.39
2023-05-14T18:08:30.099Z,50.48
2023-05-14T18:11:00.469Z,50.98
2023-05-14T18:13:30.794Z,50.82
2023-05-14T18:16:00.909Z,50.62
2023-05-14T18:18:31.930Z,51.67
2023-05-14T18:21:02.195Z,51.42
2023-05-14T18:23:32.774Z,51.40
2023-05-14T18:26:02.762Z,52.33
2023-05-14T18:28:32.531Z,52.07
2023-05-14T18:31:03.708Z,52.26
2023-05-14T18:33:34.343Z,52.33
2023-05-14T18:36:07.594Z,52.32
2023-05-14T18:38:40.779Z,52.71
2023-05-14T18:41:11.509Z,53.67
2023-05-14T18:43:41.186Z,53.29
2023-05-14T18:46:12.152Z,53.27
2023-05-14T18:48:43.108Z,53.25
2023-05-14T18:51:13.830Z,53.84
2023-05-14T18:53:44.173Z,53.33
2023-05-14T18:56:14.480Z,53.42
2023-05-14T18:58:45.506Z,53.59
2023-05-14T19:01:16.116Z,53.51
2023-05-14T19:03:46.683Z,54.01
2023-05-14T19:06:18.426Z,54.04
2023-05-14T19:08:48.555Z,54.38
2023-05-14T19:11:20.051Z,54.45
2023-05-14T19:13:49.732Z,55.60
2023-05-14T19:16:20.189Z,55.75
2023-05-14T19:18:50.909Z,56.20
2023-05-14T19:21:21.390Z,57.19
2023-05-14T19:23:52.169Z,57.28
2023-05-14T19:26:22.239Z,57.82
2023-05-14T19:28:58.089Z,57.82
2023-05-14T19:31:29.079Z,58.18
2023-05-14T19:33:59.371Z,58.71
2023-05-14T19:36:31.107Z,59.31
2023-05-14T19:39:01.637Z,59.37
2023-05-14T19:41:32.528Z,59.09
2023-05-14T19:44:03.310Z,60.13
2023-05-14T19:46:33.440Z,59.57
2023-05-14T19:49:03.959Z,59.91
2023-05-14T19:51:34.439Z,60.75
2023-05-14T19:54:05.217Z,61.89
2023-05-14T19:56:35.561Z,61.08
2023-05-14T19:59:06.074Z,62.58
2023-05-14T20:01:36.030Z,62.05
2023-05-14T20:04:08.144Z,62.78
2023-05-14T20:06:37.733Z,62.56
2023-05-14T20:09:07.970Z,62.79
2023-05-14T20:11:39.324Z,63.15
2023-05-14T20:14:09.594Z,64.42
2023-05-14T20:16:39.349Z,64.50
2023-05-14T20:19:10.727Z,64.80
2023-05-14T20:21:41.640Z,65.69
2023-05-14T20:24:11.999Z,65.77
2023-05-14T20:26:42.831Z,66.60
2023-05-14T20:29:14.247Z,67.11
2023-05-14T20:31:43.933Z,67.57
2023-05-14T20:34:15.299Z,68.68
2023-05-14T20:36:46.440Z,68.90
2023-05-14T20:39:16.564Z,70.33
2023-05-14T20:41:46.266Z,70.50
2023-05-14T20:44:17.283Z,70.52
2023-05-14T20:46:47.979Z,70.97
2023-05-14T20:49:17.813Z,71.95
2023-05-14T20:51:48.789Z,71.66
2023-05-14T20:54:19.526Z,72.00
2023-05-14T20:56:50.062Z,72.82
2023-05-14T20:59:20.792Z,73.14
2023-05-14T21:01:50.940Z,73.88
2023-05-14T21:04:21.906Z,74.50
2023-05-14T21:06:53.188Z,74.68
2023-05-14T21:09:23.706Z,75.30
2023-05-14T21:11:54.387Z,75.84
2023-05-14T21:14:24.560Z,76.49
2023-05-14T21:16:54.170Z,77.37
2023-05-14T21:19:25.142Z,77.69
2023-05-14T21:21:55.118Z,77.63
2023-05-14T21:24:25.038Z,78.80
2023-05-14T21:26:56.590Z,79.46
2023-05-14T21:29:27.451Z,79.95
2023-05-14T21:31:56.951Z,80.48
2023-05-14T21:34:27.946Z,80.91
2023-05-14T21:37:00.959Z,81.52
2023-05-14T21:39:31.278Z,82.45
2023-05-14T21:42:01.391Z,83.30
2023-05-14T21:44:31.857Z,83.87
2023-05-14T21:47:01.621Z,84.34
2023-05-14T21:49:31.746Z,84.96
2023-05-14T21:52:02.226Z,85.83
2023-05-14T21:54:32.393Z,86.14
2023-05-14T21:57:02.307Z,86.83
2023-05-14T21:59:32.222Z,87.66
2023-05-14T22:04:35.497Z,89.08
2023-05-14T22:07:06.881Z,89.10
2023-05-14T22:09:37.823Z,89.85
2023-05-14T22:12:10.006Z,90.52
2023-05-14T22:14:40.093Z,91.12
2023-05-14T22:17:10.012Z,91.59
2023-05-14T22:19:41.568Z,91.90
2023-05-14T22:22:11.480Z,92.72
2023-05-14T22:24:43.240Z,93.17
2023-05-14T22:27:13.972Z,93.37
2023-05-14T22:29:44.909Z,93.88
2023-05-14T22:32:14.613Z,94.95
2023-05-14T22:34:45.091Z,94.98
2023-05-14T22:37:15.461Z,95.67
2023-05-14T22:39:45.797Z,96.67
2023-05-14T22:42:19.665Z,97.24
2023-05-14T22:44:49.705Z,98.61
2023-05-14T22:47:19.359Z,98.50
2023-05-14T22:49:49.530Z,99.70
2023-05-14T22:52:19.469Z,100.00
2023-05-14T22:54:50.592Z,100.00
2023-05-14T22:57:21.534Z,100.00
2023-05-14T22:59:51.639Z,100.00
2023-05-14T23:02:21.827Z,100.00
2023-05-14T23:04:52.307Z,100.00
2023-05-14T23:07:23.228Z,100.00
2023-05-14T23:09:53.694Z,100.00
2023-05-14T23:12:23.683Z,100.00
2023-05-14T23:14:55.225Z,100.00
2023-05-14T23:17:25.612Z,100.00
2023-05-14T23:19:56.701Z,100.00
2023-05-14T23:22:27.415Z,100.00
2023-05-14T23:24:58.358Z,100.00
2023-05-14T23:27:29.303Z,100.00
2023-05-14T23:29:59.618Z,100.00
2023-05-14T23:32:30.146Z,100.00
2023-05-14T23:35:00.690Z,100.00
2023-05-14T23:37:31.190Z,100.00
2023-05-14T23:40:01.317Z,100.00
2023-05-14T23:42:31.639Z,100.00
2023-05-14T23:45:01.766Z,100.00
2023-05-14T23:47:31.944Z,100.00
2023-05-14T23:50:02.623Z,100.00
2023-05-14T23:52:33.135Z,100.00
2023-05-14T23:55:06.344Z,100.00
2023-05-14T23:57:37.265Z,100.00
